LYS weather

Lyon Saint-Exupéry Airport
Lyon, Rhône Alpes, France

Public forecast

Using degrees Celsius for public forecast. Weather courtesy of forecast.io.

METAR (pilot weather report)

Retrieved 2019/05/20 03:30 UTC (0 seconds ago):

LFLL 200330Z 31005KT 9999 FEW020 BKN036 OVC060 13/11 Q1007 NOSIG

TAF (pilot weather forecast)

Forecast is more than 12 hours old.

Retrieved 2019/05/19 00:21 UTC (1 day ago):

TAF LFLL 192300Z 2000/2106 VRB02KT CAVOK PROB30 TEMPO 2000/2002 RA BECMG 2002/2004 31012KT NSC PROB30 TEMPO 2005/2009 RA PROB40 TEMPO 2009/2020 4500 SHRA BKN030TCU FM202000 VRB02KT 9999 BKN030 PROB40 TEMPO 2020/2106 RA